createdAt,value
2023-04-16T00:01:02.869Z,9.60
2023-04-16T00:03:29.419Z,9.75
2023-04-16T00:05:56.440Z,10.15
2023-04-16T00:10:52.435Z,10.07
2023-04-16T00:13:18.837Z,10.57
2023-04-16T00:15:45.167Z,11.82
2023-04-16T00:18:11.529Z,11.60
2023-04-16T00:20:37.904Z,10.95
2023-04-16T00:23:04.208Z,10.73
2023-04-16T00:25:30.512Z,9.82
2023-04-16T00:27:56.979Z,11.15
2023-04-16T00:30:23.329Z,10.27
2023-04-16T00:32:49.667Z,11.48
2023-04-16T00:35:16.329Z,10.57
2023-04-16T00:37:42.663Z,10.30
2023-04-16T00:40:09.340Z,12.32
2023-04-16T00:42:36.986Z,11.13
2023-04-16T00:45:04.792Z,11.38
2023-04-16T00:47:31.693Z,11.73
2023-04-16T00:49:58.196Z,9.10
2023-04-16T00:52:25.955Z,10.80
2023-04-16T00:54:53.740Z,12.60
2023-04-16T00:57:21.026Z,11.23
2023-04-16T00:59:47.478Z,13.60
2023-04-16T01:02:14.311Z,12.82
2023-04-16T01:04:40.904Z,11.60
2023-04-16T01:07:07.212Z,14.25
2023-04-16T01:09:33.592Z,12.07
2023-04-16T01:11:59.979Z,12.25
2023-04-16T01:14:26.398Z,10.43
2023-04-16T01:16:52.834Z,10.40
2023-04-16T01:19:19.225Z,10.88
2023-04-16T01:21:45.693Z,9.43
2023-04-16T01:24:11.980Z,10.77
2023-04-16T01:26:38.275Z,13.23
2023-04-16T01:29:04.610Z,9.93
2023-04-16T01:31:31.055Z,11.10
2023-04-16T01:33:57.384Z,10.27
2023-04-16T01:36:23.671Z,10.57
2023-04-16T01:38:50.043Z,11.48
2023-04-16T01:41:16.513Z,11.27
2023-04-16T01:43:42.821Z,12.07
2023-04-16T01:46:17.983Z,10.98
2023-04-16T01:48:44.515Z,11.55
2023-04-16T01:51:10.884Z,11.90
2023-04-16T01:53:37.344Z,11.68
2023-04-16T01:56:03.951Z,11.88
2023-04-16T01:58:31.090Z,10.88
2023-04-16T02:00:57.705Z,11.75
2023-04-16T02:03:24.906Z,12.82
2023-04-16T02:05:51.598Z,10.27
2023-04-16T02:08:18.491Z,10.60
2023-04-16T02:13:15.628Z,10.35
2023-04-16T02:15:49.180Z,13.43
2023-04-16T02:18:16.222Z,10.13
2023-04-16T02:20:43.681Z,11.00
2023-04-16T02:23:10.683Z,10.77
2023-04-16T02:25:41.217Z,11.55
2023-04-16T02:28:12.165Z,11.52
2023-04-16T02:30:39.769Z,12.02
2023-04-16T02:33:07.823Z,11.93
2023-04-16T02:35:34.695Z,10.40
2023-04-16T02:40:28.166Z,10.73
2023-04-16T02:42:54.744Z,11.20
2023-04-16T02:45:21.440Z,12.00
2023-04-16T02:47:48.859Z,12.18
2023-04-16T02:50:15.606Z,11.82
2023-04-16T02:52:42.055Z,13.70
2023-04-16T02:55:09.122Z,12.77
2023-04-16T02:57:35.489Z,11.63
2023-04-16T03:00:02.233Z,12.15
2023-04-16T03:02:28.558Z,10.73
2023-04-16T03:04:54.922Z,11.98
2023-04-16T03:07:21.531Z,11.57
2023-04-16T03:09:47.809Z,13.68
2023-04-16T03:12:14.114Z,12.10
2023-04-16T03:14:40.605Z,11.55
2023-04-16T03:17:07.041Z,12.68
2023-04-16T03:19:33.423Z,11.13
2023-04-16T03:21:59.739Z,13.02
2023-04-16T03:24:26.153Z,13.30
2023-04-16T03:26:52.447Z,11.45
2023-04-16T03:29:18.770Z,12.25
2023-04-16T03:31:45.035Z,14.25
2023-04-16T03:34:11.313Z,14.32
2023-04-16T03:36:37.607Z,13.93
2023-04-16T03:39:03.994Z,12.40
2023-04-16T03:41:30.335Z,12.27
2023-04-16T03:43:56.640Z,13.57
2023-04-16T03:46:22.981Z,13.25
2023-04-16T03:48:49.264Z,13.05
2023-04-16T03:51:15.927Z,12.25
2023-04-16T03:53:42.247Z,13.60
2023-04-16T03:56:08.568Z,13.30
2023-04-16T03:58:34.912Z,14.07
2023-04-16T04:01:01.221Z,13.40
2023-04-16T04:03:27.852Z,15.00
2023-04-16T04:05:54.281Z,12.68
2023-04-16T04:08:20.772Z,15.15
2023-04-16T04:10:47.090Z,12.13
2023-04-16T04:13:13.430Z,13.63
2023-04-16T04:15:39.824Z,12.40
2023-04-16T04:18:06.172Z,13.63
2023-04-16T04:20:32.467Z,15.77
2023-04-16T04:22:58.998Z,12.60
2023-04-16T04:25:25.493Z,14.45
2023-04-16T04:27:51.775Z,15.27
2023-04-16T04:30:18.054Z,16.55
2023-04-16T04:32:44.418Z,14.63
2023-04-16T04:35:10.951Z,15.48
2023-04-16T04:37:37.331Z,15.07
2023-04-16T04:40:03.898Z,12.80
2023-04-16T04:42:30.239Z,14.02
2023-04-16T04:44:56.561Z,12.68
2023-04-16T04:47:22.894Z,15.07
2023-04-16T04:49:49.178Z,13.73
2023-04-16T04:52:15.680Z,13.00
2023-04-16T04:54:42.161Z,14.93
2023-04-16T04:57:08.710Z,14.85
2023-04-16T04:59:35.034Z,14.70
2023-04-16T05:02:03.210Z,14.60
2023-04-16T05:04:30.641Z,15.32
2023-04-16T05:06:57.018Z,12.90
2023-04-16T05:09:23.301Z,14.88
2023-04-16T05:11:49.713Z,15.10
2023-04-16T05:14:16.259Z,15.88
2023-04-16T05:16:42.574Z,13.95
2023-04-16T05:19:09.085Z,13.60
2023-04-16T05:21:35.706Z,13.90
2023-04-16T05:24:03.169Z,13.90
2023-04-16T05:26:29.490Z,12.57
2023-04-16T05:28:55.856Z,11.45
2023-04-16T05:31:22.327Z,14.35
2023-04-16T05:33:48.714Z,14.20
2023-04-16T05:36:15.005Z,11.73
2023-04-16T05:38:41.303Z,15.23
2023-04-16T05:41:07.582Z,14.68
2023-04-16T05:43:33.867Z,14.60
2023-04-16T05:46:00.333Z,12.80
2023-04-16T05:48:26.714Z,12.85
2023-04-16T05:50:53.769Z,13.50
2023-04-16T05:53:20.267Z,14.10
2023-04-16T05:55:47.210Z,11.43
2023-04-16T05:58:13.497Z,12.32
2023-04-16T06:00:40.429Z,14.70
2023-04-16T06:03:06.925Z,12.32
2023-04-16T06:05:33.472Z,12.98
2023-04-16T06:07:59.842Z,13.38
2023-04-16T06:10:26.297Z,12.68
2023-04-16T06:12:52.587Z,14.57
2023-04-16T06:15:18.969Z,13.52
2023-04-16T06:17:45.350Z,14.18
2023-04-16T06:20:12.504Z,11.95
2023-04-16T06:22:38.861Z,12.50
2023-04-16T06:25:05.674Z,14.32
2023-04-16T06:29:58.527Z,15.85
2023-04-16T06:32:25.381Z,13.65
2023-04-16T06:37:19.174Z,14.20
2023-04-16T06:39:45.641Z,13.52
2023-04-16T06:42:12.011Z,14.65
2023-04-16T06:44:38.361Z,16.75
2023-04-16T06:47:04.797Z,13.75
2023-04-16T06:49:31.233Z,13.95
2023-04-16T06:51:57.730Z,14.65
2023-04-16T06:54:24.023Z,14.30
2023-04-16T06:56:50.421Z,14.73
2023-04-16T06:59:16.932Z,14.55
2023-04-16T07:01:43.412Z,12.93
2023-04-16T07:04:09.837Z,15.65
2023-04-16T07:06:36.205Z,14.32
2023-04-16T07:09:02.510Z,12.57
2023-04-16T07:11:28.998Z,16.20
2023-04-16T07:13:55.370Z,18.95
2023-04-16T07:16:21.669Z,17.95
2023-04-16T07:18:47.990Z,16.77
2023-04-16T07:21:14.351Z,18.00
2023-04-16T07:23:41.646Z,20.42
2023-04-16T07:26:07.961Z,17.50
2023-04-16T07:28:34.374Z,16.55
2023-04-16T07:31:00.741Z,16.63
2023-04-16T07:33:27.248Z,18.65
2023-04-16T07:35:53.542Z,17.27
2023-04-16T07:38:19.847Z,17.25
2023-04-16T07:40:46.265Z,21.23
2023-04-16T07:43:13.877Z,21.35
2023-04-16T07:45:41.343Z,19.05
2023-04-16T07:48:07.861Z,23.55
2023-04-16T07:50:34.166Z,19.60
2023-04-16T07:53:00.900Z,18.65
2023-04-16T07:57:53.807Z,19.60
2023-04-16T08:00:20.345Z,15.70
2023-04-16T08:02:46.899Z,16.35
2023-04-16T08:05:13.482Z,18.70
2023-04-16T08:07:39.875Z,18.17
2023-04-16T08:10:06.877Z,22.70
2023-04-16T08:12:33.531Z,18.27
2023-04-16T08:14:59.884Z,19.48
2023-04-16T08:17:26.284Z,20.60
2023-04-16T08:19:52.787Z,17.17
2023-04-16T08:22:19.373Z,15.05
2023-04-16T08:24:45.942Z,16.02
2023-04-16T08:27:19.156Z,16.88
2023-04-16T08:29:47.759Z,18.45
2023-04-16T08:32:14.087Z,15.30
2023-04-16T08:34:41.860Z,19.98
2023-04-16T08:37:08.198Z,17.98
2023-04-16T08:39:35.140Z,16.40
2023-04-16T08:42:04.857Z,15.88
2023-04-16T08:44:37.361Z,14.27
2023-04-16T08:47:08.858Z,16.13
2023-04-16T08:49:43.072Z,17.25
2023-04-16T08:52:16.442Z,15.15
2023-04-16T08:55:05.069Z,15.48
2023-04-16T08:57:39.848Z,15.93
2023-04-16T09:00:08.959Z,14.27
2023-04-16T09:02:36.014Z,16.40
2023-04-16T09:05:05.006Z,15.85
2023-04-16T09:07:32.880Z,14.43
2023-04-16T09:10:00.748Z,17.85
2023-04-16T09:12:27.695Z,16.27
2023-04-16T09:14:54.729Z,15.20
2023-04-16T09:17:21.088Z,16.98
2023-04-16T09:19:47.478Z,15.93
2023-04-16T09:22:13.812Z,18.55
2023-04-16T09:24:40.384Z,15.70
2023-04-16T09:27:07.845Z,15.60
2023-04-16T09:29:40.478Z,18.13
2023-04-16T09:32:08.781Z,15.00
2023-04-16T09:34:50.963Z,16.98
2023-04-16T09:37:18.093Z,16.58
2023-04-16T09:39:45.436Z,16.42
2023-04-16T09:42:12.159Z,14.38
2023-04-16T09:47:09.716Z,18.02
2023-04-16T09:49:42.111Z,16.92
2023-04-16T09:52:17.980Z,16.33
2023-04-16T09:54:52.402Z,17.88
2023-04-16T09:57:23.531Z,16.77
2023-04-16T10:00:02.595Z,15.82
2023-04-16T10:02:29.343Z,16.17
2023-04-16T10:04:57.434Z,16.10
2023-04-16T10:07:28.327Z,18.65
2023-04-16T10:09:55.796Z,15.93
2023-04-16T10:12:22.109Z,15.32
2023-04-16T10:14:50.095Z,17.65
2023-04-16T10:17:16.999Z,15.82
2023-04-16T10:19:43.844Z,17.15
2023-04-16T10:22:10.193Z,16.98
2023-04-16T10:24:36.541Z,16.85
2023-04-16T10:27:02.995Z,17.27
2023-04-16T10:29:30.842Z,15.18
2023-04-16T10:31:58.323Z,15.88
2023-04-16T10:34:25.799Z,17.52
2023-04-16T10:36:53.240Z,16.75
2023-04-16T10:39:24.097Z,17.52
2023-04-16T10:41:51.657Z,14.73
2023-04-16T10:44:19.413Z,16.40
2023-04-16T10:46:52.160Z,16.75
2023-04-16T10:49:22.948Z,13.68
2023-04-16T10:51:59.575Z,16.50
2023-04-16T10:54:27.808Z,14.35
2023-04-16T10:56:56.774Z,18.58
2023-04-16T10:59:24.294Z,16.35
2023-04-16T11:01:55.870Z,18.83
2023-04-16T11:04:25.543Z,16.00
2023-04-16T11:07:07.079Z,17.80
2023-04-16T11:10:02.071Z,15.95
2023-04-16T11:12:37.397Z,15.07
2023-04-16T11:15:11.354Z,15.15
2023-04-16T11:17:43.383Z,17.95
2023-04-16T11:20:19.988Z,16.83
2023-04-16T11:22:48.390Z,15.75
2023-04-16T11:25:29.710Z,15.63
2023-04-16T11:27:57.875Z,14.35
2023-04-16T11:30:33.739Z,13.85
2023-04-16T11:33:04.291Z,17.13
2023-04-16T11:35:31.034Z,15.43
2023-04-16T11:37:57.894Z,16.10
2023-04-16T11:40:25.025Z,17.42
2023-04-16T11:42:51.345Z,18.48
2023-04-16T11:45:19.383Z,18.25
2023-04-16T11:47:50.181Z,21.25
2023-04-16T11:50:27.610Z,18.42
2023-04-16T11:52:56.113Z,15.60
2023-04-16T11:55:23.869Z,16.20
2023-04-16T11:57:51.321Z,15.63
2023-04-16T12:00:19.271Z,19.60
2023-04-16T12:02:52.427Z,16.35
2023-04-16T12:05:35.585Z,18.20
2023-04-16T12:08:04.896Z,17.20
2023-04-16T12:10:35.095Z,17.08
2023-04-16T12:13:15.777Z,18.63
2023-04-16T12:15:59.364Z,22.23
2023-04-16T12:18:29.302Z,18.45
2023-04-16T12:20:55.883Z,19.23
2023-04-16T12:23:26.355Z,20.48
2023-04-16T12:25:53.116Z,22.60
2023-04-16T12:28:33.242Z,20.23
2023-04-16T12:31:00.438Z,22.23
2023-04-16T12:33:26.927Z,25.00
2023-04-16T12:35:55.156Z,22.08
2023-04-16T12:38:24.072Z,23.40
2023-04-16T12:40:50.991Z,23.02
2023-04-16T12:45:45.712Z,19.45
2023-04-16T12:48:12.033Z,20.08
2023-04-16T12:50:39.684Z,19.88
2023-04-16T12:53:06.209Z,19.70
2023-04-16T12:55:32.591Z,19.30
2023-04-16T12:58:00.793Z,20.17
2023-04-16T13:00:27.093Z,18.48
2023-04-16T13:02:56.022Z,23.92
2023-04-16T13:05:22.415Z,20.70
2023-04-16T13:07:48.745Z,23.27
2023-04-16T13:10:15.270Z,18.63
2023-04-16T13:12:41.593Z,20.55
2023-04-16T13:15:08.626Z,22.15
2023-04-16T13:17:34.964Z,18.35
2023-04-16T13:20:06.443Z,21.15
2023-04-16T13:22:33.457Z,20.50
2023-04-16T13:24:59.799Z,23.83
2023-04-16T13:27:26.241Z,18.55
2023-04-16T13:29:55.391Z,20.70
2023-04-16T13:32:21.762Z,21.42
2023-04-16T13:34:49.316Z,21.15
2023-04-16T13:37:15.719Z,19.75
2023-04-16T13:39:41.993Z,18.77
2023-04-16T13:42:08.313Z,18.92
2023-04-16T13:44:37.434Z,18.65
2023-04-16T13:47:03.921Z,22.20
2023-04-16T13:51:57.263Z,18.90
2023-04-16T13:54:23.587Z,20.35
2023-04-16T13:56:50.635Z,22.10
2023-04-16T13:59:17.152Z,22.25
2023-04-16T14:01:43.488Z,21.85
2023-04-16T14:04:09.840Z,23.15
2023-04-16T14:06:36.278Z,22.90
2023-04-16T14:09:02.685Z,22.50
2023-04-16T14:11:29.097Z,20.42
2023-04-16T14:13:58.412Z,20.77
2023-04-16T14:16:24.834Z,23.35
2023-04-16T14:18:51.886Z,21.35
2023-04-16T14:21:18.560Z,21.27
2023-04-16T14:23:44.869Z,21.05
2023-04-16T14:26:11.224Z,20.85
2023-04-16T14:28:38.083Z,20.70
2023-04-16T14:31:04.575Z,22.67
2023-04-16T14:33:31.047Z,20.35
2023-04-16T14:35:57.367Z,23.25
2023-04-16T14:38:23.866Z,22.23
2023-04-16T14:40:50.392Z,21.98
2023-04-16T14:43:16.748Z,23.00
2023-04-16T14:45:43.157Z,24.92
2023-04-16T14:48:09.532Z,19.92
2023-04-16T14:50:37.855Z,22.30
2023-04-16T14:53:07.301Z,19.75
2023-04-16T14:55:33.691Z,22.00
2023-04-16T14:58:00.067Z,21.63
2023-04-16T15:00:27.266Z,19.20
2023-04-16T15:02:54.950Z,21.05
2023-04-16T15:05:22.168Z,21.23
2023-04-16T15:07:51.605Z,23.20
2023-04-16T15:10:19.578Z,24.45
2023-04-16T15:12:45.885Z,20.33
2023-04-16T15:15:12.173Z,20.70
2023-04-16T15:17:39.090Z,22.35
2023-04-16T15:20:08.090Z,24.10
2023-04-16T15:22:34.558Z,22.27
2023-04-16T15:25:00.899Z,23.05
2023-04-16T15:27:27.274Z,21.98
2023-04-16T15:29:53.974Z,21.80
2023-04-16T15:32:20.450Z,22.10
2023-04-16T15:34:46.847Z,23.15
2023-04-16T15:37:13.211Z,22.67
2023-04-16T15:39:39.526Z,22.48
2023-04-16T15:42:07.455Z,22.60
2023-04-16T15:44:36.796Z,25.17
2023-04-16T15:47:03.237Z,23.05
2023-04-16T15:49:29.564Z,24.75
2023-04-16T15:51:56.413Z,23.65
2023-04-16T15:54:23.556Z,23.35
2023-04-16T15:56:52.992Z,19.80
2023-04-16T15:59:21.330Z,24.17
2023-04-16T16:01:47.654Z,25.48
2023-04-16T16:04:14.099Z,22.80
2023-04-16T16:09:08.278Z,23.92
2023-04-16T16:14:05.214Z,21.55
2023-04-16T16:16:34.892Z,20.55
2023-04-16T16:19:01.500Z,20.70
2023-04-16T16:21:30.093Z,21.73
2023-04-16T16:23:56.930Z,21.83
2023-04-16T16:26:23.348Z,24.02
2023-04-16T16:28:49.682Z,21.90
2023-04-16T16:31:16.152Z,22.67
2023-04-16T16:33:42.486Z,22.35
2023-04-16T16:36:12.257Z,21.30
2023-04-16T16:38:43.033Z,30.23
2023-04-16T16:41:09.389Z,29.38
2023-04-16T16:43:36.704Z,27.60
2023-04-16T16:46:03.363Z,26.35
2023-04-16T16:50:55.998Z,27.50
2023-04-16T16:53:22.341Z,31.33
2023-04-16T16:55:50.989Z,33.15
2023-04-16T16:58:17.320Z,32.40
2023-04-16T17:00:43.752Z,35.33
2023-04-16T17:03:10.344Z,22.98
2023-04-16T17:08:03.107Z,23.00
2023-04-16T17:10:29.644Z,22.48
2023-04-16T17:12:56.017Z,21.50
2023-04-16T17:15:22.437Z,20.33
2023-04-16T17:17:48.946Z,22.60
2023-04-16T17:20:15.557Z,19.55
2023-04-16T17:25:08.674Z,19.42
2023-04-16T17:27:35.095Z,20.42
2023-04-16T17:30:02.915Z,21.70
2023-04-16T17:32:29.702Z,21.00
2023-04-16T17:34:56.443Z,20.45
2023-04-16T17:39:49.637Z,21.20
2023-04-16T17:44:42.395Z,20.30
2023-04-16T17:47:08.784Z,21.58
2023-04-16T17:49:35.092Z,21.38
2023-04-16T17:52:01.500Z,22.17
2023-04-16T17:54:27.982Z,20.30
2023-04-16T17:56:54.320Z,19.90
2023-04-16T17:59:20.810Z,18.80
2023-04-16T18:01:49.404Z,22.38
2023-04-16T18:04:16.276Z,21.40
2023-04-16T18:06:43.080Z,21.20
2023-04-16T18:09:09.374Z,22.77
2023-04-16T18:11:35.845Z,22.35
2023-04-16T18:14:02.194Z,21.80
2023-04-16T18:16:28.542Z,22.15
2023-04-16T18:18:54.932Z,21.77
2023-04-16T18:21:21.231Z,22.30
2023-04-16T18:23:48.426Z,22.38
2023-04-16T18:26:18.370Z,22.90
2023-04-16T18:28:47.128Z,20.50
2023-04-16T18:31:13.456Z,24.05
2023-04-16T18:33:55.549Z,19.65
2023-04-16T18:36:24.085Z,20.88
2023-04-16T18:39:01.014Z,22.88
2023-04-16T18:41:29.704Z,23.60
2023-04-16T18:43:56.128Z,19.58
2023-04-16T18:46:22.518Z,23.17
2023-04-16T18:48:48.872Z,20.95
2023-04-16T18:51:16.600Z,22.17
2023-04-16T18:53:44.391Z,22.10
2023-04-16T18:56:11.051Z,22.15
2023-04-16T18:58:37.871Z,19.83
2023-04-16T19:01:04.821Z,21.05
2023-04-16T19:03:32.113Z,20.40
2023-04-16T19:05:58.723Z,18.95
2023-04-16T19:08:25.237Z,20.23
2023-04-16T19:10:51.613Z,21.30
2023-04-16T19:13:17.981Z,21.90
2023-04-16T19:15:44.278Z,21.23
2023-04-16T19:18:10.747Z,21.17
2023-04-16T19:20:37.288Z,19.13
2023-04-16T19:23:08.853Z,20.92
2023-04-16T19:25:36.459Z,20.85
2023-04-16T19:28:03.664Z,19.63
2023-04-16T19:30:30.805Z,21.23
2023-04-16T19:32:57.480Z,19.98
2023-04-16T19:37:50.469Z,23.25
2023-04-16T19:40:16.749Z,20.55
2023-04-16T19:42:45.146Z,21.25
2023-04-16T19:45:11.481Z,25.00
2023-04-16T19:47:37.784Z,22.50
2023-04-16T19:50:04.456Z,23.55
2023-04-16T19:52:30.738Z,23.60
2023-04-16T19:54:57.042Z,22.65
2023-04-16T19:57:23.469Z,22.10
2023-04-16T19:59:49.805Z,21.35
2023-04-16T20:02:16.161Z,25.77
2023-04-16T20:04:42.486Z,23.23
2023-04-16T20:07:08.767Z,25.23
2023-04-16T20:09:35.290Z,23.88
2023-04-16T20:12:01.842Z,27.20
2023-04-16T20:14:28.162Z,23.30
2023-04-16T20:16:54.560Z,26.23
2023-04-16T20:19:22.019Z,23.13
2023-04-16T20:21:48.341Z,24.75
2023-04-16T20:24:15.353Z,25.92
2023-04-16T20:26:41.837Z,23.55
2023-04-16T20:29:09.928Z,27.05
2023-04-16T20:31:36.538Z,27.33
2023-04-16T20:34:03.703Z,23.88
2023-04-16T20:36:30.374Z,26.08
2023-04-16T20:38:56.696Z,24.92
2023-04-16T20:41:25.070Z,29.40
2023-04-16T20:43:52.662Z,25.27
2023-04-16T20:46:19.153Z,31.05
2023-04-16T20:48:45.560Z,24.58
2023-04-16T20:51:12.178Z,28.83
2023-04-16T20:53:38.466Z,25.40
2023-04-16T20:56:05.279Z,21.50
2023-04-16T20:58:31.661Z,24.48
2023-04-16T21:00:57.972Z,27.75
2023-04-16T21:03:24.737Z,27.35
2023-04-16T21:05:55.550Z,28.88
2023-04-16T21:08:23.115Z,25.80
2023-04-16T21:10:50.453Z,25.33
2023-04-16T21:13:17.128Z,24.42
2023-04-16T21:15:45.178Z,25.08
2023-04-16T21:18:12.445Z,27.58
2023-04-16T21:20:39.393Z,26.95
2023-04-16T21:23:06.260Z,25.98
2023-04-16T21:25:33.404Z,29.67
2023-04-16T21:27:59.774Z,29.67
2023-04-16T21:30:26.096Z,29.35
2023-04-16T21:32:52.525Z,30.30
2023-04-16T21:35:18.871Z,30.38
2023-04-16T21:37:45.201Z,28.63
2023-04-16T21:40:11.690Z,27.00
2023-04-16T21:42:39.769Z,30.05
2023-04-16T21:45:08.418Z,26.67
2023-04-16T21:47:34.903Z,30.92
2023-04-16T21:50:01.373Z,25.88
2023-04-16T21:52:27.835Z,29.17
2023-04-16T21:54:54.385Z,28.00
2023-04-16T21:57:20.696Z,28.20
2023-04-16T21:59:46.969Z,29.50
2023-04-16T22:02:13.300Z,24.55
2023-04-16T22:04:39.984Z,28.77
2023-04-16T22:07:09.028Z,27.95
2023-04-16T22:09:36.168Z,27.98
2023-04-16T22:12:02.537Z,24.70
2023-04-16T22:14:30.057Z,24.88
2023-04-16T22:16:56.464Z,27.67
2023-04-16T22:19:22.930Z,27.98
2023-04-16T22:21:49.257Z,24.42
2023-04-16T22:24:15.682Z,25.45
2023-04-16T22:26:42.083Z,27.00
2023-04-16T22:29:08.566Z,25.33
2023-04-16T22:31:35.056Z,25.02
2023-04-16T22:34:03.354Z,24.63
2023-04-16T22:36:31.148Z,26.50
2023-04-16T22:38:57.432Z,25.45
2023-04-16T22:41:23.753Z,26.88
2023-04-16T22:43:52.451Z,27.65
2023-04-16T22:46:22.298Z,27.85
2023-04-16T22:48:48.628Z,27.20
2023-04-16T22:51:14.919Z,23.38
2023-04-16T22:53:41.289Z,27.50
2023-04-16T22:56:07.632Z,23.10
2023-04-16T22:58:33.950Z,26.48
2023-04-16T23:01:01.465Z,28.10
2023-04-16T23:03:27.858Z,25.15
2023-04-16T23:05:54.273Z,23.42
2023-04-16T23:08:20.629Z,26.35
2023-04-16T23:10:46.902Z,26.27
2023-04-16T23:13:13.440Z,25.05
2023-04-16T23:15:39.773Z,26.30
2023-04-16T23:18:06.111Z,27.33
2023-04-16T23:20:32.452Z,22.58
2023-04-16T23:22:58.718Z,24.73
2023-04-16T23:25:25.520Z,22.95
2023-04-16T23:30:18.189Z,21.50
2023-04-16T23:32:44.509Z,20.90
2023-04-16T23:35:10.824Z,20.67
2023-04-16T23:37:37.188Z,25.80
2023-04-16T23:40:04.471Z,27.08
2023-04-16T23:42:30.806Z,26.15
2023-04-16T23:44:57.231Z,23.45
2023-04-16T23:47:23.623Z,25.45
2023-04-16T23:49:49.951Z,26.00
2023-04-16T23:52:16.278Z,24.25
2023-04-16T23:54:42.568Z,22.17
2023-04-16T23:57:09.004Z,22.92
2023-04-16T23:59:35.282Z,23.23
